createdAt,value
2019-05-16T00:00:29.050Z,1.67
2019-05-16T00:02:58.923Z,1.90
2019-05-16T00:05:28.139Z,1.75
2019-05-16T00:07:59.010Z,1.87
2019-05-16T00:10:28.108Z,1.70
2019-05-16T00:12:59.659Z,1.70
2019-05-16T00:15:28.669Z,1.70
2019-05-16T00:17:58.330Z,1.70
2019-05-16T00:20:28.489Z,1.67
2019-05-16T00:22:58.815Z,1.70
2019-05-16T00:25:28.656Z,1.87
2019-05-16T00:27:58.765Z,1.90
2019-05-16T00:30:28.741Z,1.52
2019-05-16T00:32:58.773Z,2.00
2019-05-16T00:35:28.519Z,1.72
2019-05-16T00:37:58.973Z,1.75
2019-05-16T00:40:28.028Z,1.60
2019-05-16T00:42:58.907Z,1.92
2019-05-16T00:45:29.594Z,1.60
2019-05-16T00:47:58.450Z,1.72
2019-05-16T00:50:28.925Z,1.65
2019-05-16T00:52:59.055Z,1.52
2019-05-16T00:55:28.395Z,1.50
2019-05-16T00:57:58.392Z,1.67
2019-05-16T01:00:38.923Z,1.72
2019-05-16T01:03:08.103Z,1.57
2019-05-16T01:05:38.755Z,1.70
2019-05-16T01:08:07.877Z,1.57
2019-05-16T01:10:38.933Z,1.62
2019-05-16T01:13:07.966Z,1.67
2019-05-16T01:15:38.011Z,1.52
2019-05-16T01:18:08.074Z,1.50
2019-05-16T01:20:38.669Z,1.35
2019-05-16T01:23:08.873Z,1.47
2019-05-16T01:25:38.746Z,1.47
2019-05-16T01:28:08.825Z,1.25
2019-05-16T01:30:38.044Z,1.70
2019-05-16T01:33:08.873Z,1.30
2019-05-16T01:35:38.541Z,1.45
2019-05-16T01:38:08.646Z,1.57
2019-05-16T01:40:38.780Z,1.42
2019-05-16T01:43:08.539Z,1.65
2019-05-16T01:45:38.435Z,1.32
2019-05-16T01:48:08.288Z,1.40
2019-05-16T01:50:38.762Z,1.70
2019-05-16T01:53:08.707Z,1.32
2019-05-16T01:55:38.098Z,1.35
2019-05-16T01:58:08.017Z,1.17
2019-05-16T02:00:47.553Z,1.50
2019-05-16T02:03:08.306Z,1.27
2019-05-16T02:05:38.745Z,1.37
2019-05-16T02:08:08.842Z,1.67
2019-05-16T02:10:38.068Z,1.20
2019-05-16T02:13:08.472Z,1.60
2019-05-16T02:15:38.399Z,1.52
2019-05-16T02:18:08.277Z,1.20
2019-05-16T02:20:39.255Z,1.22
2019-05-16T02:23:08.148Z,1.20
2019-05-16T02:25:38.186Z,1.22
2019-05-16T02:28:07.329Z,1.42
2019-05-16T02:30:36.051Z,1.15
2019-05-16T02:33:04.759Z,1.47
2019-05-16T02:35:33.441Z,1.20
2019-05-16T02:38:02.169Z,1.50
2019-05-16T02:40:31.441Z,1.10
2019-05-16T02:43:01.702Z,1.12
2019-05-16T02:45:32.376Z,1.50
2019-05-16T02:48:01.684Z,1.30
2019-05-16T02:50:31.681Z,1.30
2019-05-16T02:53:01.349Z,1.30
2019-05-16T02:55:30.895Z,1.40
2019-05-16T02:58:00.852Z,1.20
2019-05-16T03:00:35.290Z,1.22
2019-05-16T03:03:05.217Z,1.17
2019-05-16T03:05:34.091Z,1.20
2019-05-16T03:08:03.437Z,1.40
2019-05-16T03:10:32.895Z,1.25
2019-05-16T03:13:01.639Z,1.15
2019-05-16T03:15:31.150Z,1.35
2019-05-16T03:18:03.790Z,1.30
2019-05-16T03:20:33.047Z,1.62
2019-05-16T03:23:02.433Z,1.20
2019-05-16T03:25:31.303Z,1.05
2019-05-16T03:28:01.963Z,1.30
2019-05-16T03:30:34.987Z,1.05
2019-05-16T03:33:04.626Z,1.17
2019-05-16T03:35:33.950Z,1.22
2019-05-16T03:38:05.402Z,0.90
2019-05-16T03:40:35.304Z,1.10
2019-05-16T03:43:03.968Z,1.10
2019-05-16T03:45:32.658Z,0.90
2019-05-16T03:48:02.847Z,1.05
2019-05-16T03:50:31.746Z,1.17
2019-05-16T03:53:01.565Z,1.12
2019-05-16T03:55:32.561Z,1.40
2019-05-16T03:58:01.431Z,1.10
2019-05-16T04:00:52.385Z,1.10
2019-05-16T04:03:21.288Z,1.25
2019-05-16T04:05:52.486Z,1.35
2019-05-16T04:08:24.497Z,1.67
2019-05-16T04:10:52.151Z,1.35
2019-05-16T04:13:21.638Z,1.47
2019-05-16T04:15:52.567Z,1.40
2019-05-16T04:18:21.969Z,1.10
2019-05-16T04:20:52.256Z,0.95
2019-05-16T04:23:21.466Z,1.20
2019-05-16T04:25:52.339Z,1.17
2019-05-16T04:28:22.049Z,1.10
2019-05-16T04:30:52.064Z,1.45
2019-05-16T04:33:22.451Z,1.10
2019-05-16T04:35:52.659Z,1.12
2019-05-16T04:38:35.070Z,1.17
2019-05-16T04:40:52.593Z,1.10
2019-05-16T04:43:22.502Z,2.00
2019-05-16T04:45:52.449Z,1.72
2019-05-16T04:48:22.470Z,4.00
2019-05-16T04:50:52.310Z,3.83
2019-05-16T04:53:21.705Z,3.40
2019-05-16T04:55:51.899Z,1.92
2019-05-16T04:58:23.399Z,2.20
2019-05-16T05:00:52.148Z,1.95
2019-05-16T05:03:21.736Z,3.17
2019-05-16T05:05:51.283Z,1.80
2019-05-16T05:08:21.797Z,1.87
2019-05-16T05:10:51.809Z,1.45
2019-05-16T05:13:22.028Z,2.00
2019-05-16T05:15:51.491Z,1.70
2019-05-16T05:18:21.206Z,1.47
2019-05-16T05:20:52.416Z,1.50
2019-05-16T05:23:21.333Z,1.05
2019-05-16T05:25:51.244Z,1.32
2019-05-16T05:28:21.157Z,1.10
2019-05-16T05:30:50.593Z,1.57
2019-05-16T05:33:21.090Z,1.20
2019-05-16T05:35:50.604Z,1.80
2019-05-16T05:38:21.392Z,1.15
2019-05-16T05:40:51.267Z,1.25
2019-05-16T05:43:21.637Z,1.47
2019-05-16T05:45:51.362Z,1.55
2019-05-16T05:48:21.642Z,1.27
2019-05-16T05:50:51.166Z,0.90
2019-05-16T05:53:20.748Z,1.32
2019-05-16T05:55:51.339Z,1.10
2019-05-16T05:58:20.998Z,1.40
2019-05-16T06:00:51.951Z,1.30
2019-05-16T06:03:22.327Z,1.65
2019-05-16T06:05:50.789Z,1.35
2019-05-16T06:08:20.521Z,2.42
2019-05-16T06:10:50.437Z,1.82
2019-05-16T06:13:20.564Z,2.42
2019-05-16T06:15:50.897Z,2.92
2019-05-16T06:18:20.315Z,1.90
2019-05-16T06:20:51.287Z,3.95
2019-05-16T06:23:20.669Z,2.08
2019-05-16T06:25:50.604Z,1.80
2019-05-16T06:28:20.625Z,2.40
2019-05-16T06:30:51.696Z,2.02
2019-05-16T06:33:20.460Z,2.10
2019-05-16T06:35:51.188Z,3.00
2019-05-16T06:38:21.190Z,2.27
2019-05-16T06:40:52.561Z,1.60
2019-05-16T06:43:20.774Z,2.10
2019-05-16T06:45:51.320Z,1.57
2019-05-16T06:48:21.095Z,1.45
2019-05-16T06:50:51.494Z,2.15
2019-05-16T06:53:21.074Z,2.08
2019-05-16T06:55:50.135Z,1.67
2019-05-16T06:58:21.875Z,1.22
2019-05-16T07:00:52.419Z,1.32
2019-05-16T07:03:20.659Z,1.15
2019-05-16T07:05:50.406Z,1.10
2019-05-16T07:08:20.616Z,1.25
2019-05-16T07:10:50.824Z,1.35
2019-05-16T07:13:19.991Z,1.60
2019-05-16T07:15:50.207Z,1.60
2019-05-16T07:18:21.100Z,1.32
2019-05-16T07:20:51.142Z,1.25
2019-05-16T07:23:20.967Z,1.30
2019-05-16T07:25:50.735Z,1.30
2019-05-16T07:28:20.868Z,1.42
2019-05-16T07:30:50.126Z,1.10
2019-05-16T07:33:21.020Z,1.35
2019-05-16T07:35:51.253Z,1.40
2019-05-16T07:38:20.451Z,1.57
2019-05-16T07:40:51.276Z,1.80
2019-05-16T07:43:20.519Z,1.77
2019-05-16T07:45:51.442Z,1.82
2019-05-16T07:48:21.406Z,1.55
2019-05-16T07:50:50.475Z,1.40
2019-05-16T07:53:21.372Z,1.40
2019-05-16T07:55:50.951Z,1.45
2019-05-16T07:58:21.930Z,1.70
2019-05-16T08:00:58.381Z,1.95
2019-05-16T08:03:21.678Z,1.40
2019-05-16T08:05:51.635Z,1.85
2019-05-16T08:08:24.231Z,1.55
2019-05-16T08:10:51.427Z,1.60
2019-05-16T08:13:21.050Z,1.70
2019-05-16T08:15:50.670Z,1.50
2019-05-16T08:23:22.221Z,1.60
2019-05-16T08:25:51.163Z,1.80
2019-05-16T08:28:21.498Z,1.70
2019-05-16T08:30:52.842Z,1.60
2019-05-16T08:33:22.104Z,1.70
2019-05-16T08:35:51.790Z,1.70
2019-05-16T08:38:21.999Z,1.80
2019-05-16T08:43:21.823Z,2.10
2019-05-16T08:45:51.778Z,2.27
2019-05-16T08:48:22.896Z,2.20
2019-05-16T08:50:05.720Z,1.90
2019-05-16T08:50:10.089Z,2.02
2019-05-16T08:50:10.905Z,1.90
2019-05-16T08:50:54.615Z,1.95
2019-05-16T08:53:22.011Z,2.25
2019-05-16T08:55:51.076Z,2.50
2019-05-16T08:58:22.723Z,2.05
2019-05-16T09:00:55.280Z,2.12
2019-05-16T09:03:22.212Z,2.40
2019-05-16T09:05:53.614Z,2.30
2019-05-16T09:08:21.715Z,2.47
2019-05-16T09:11:09.471Z,2.12
2019-05-16T09:13:20.777Z,2.45
2019-05-16T09:15:49.433Z,1.80
2019-05-16T09:18:18.216Z,2.08
2019-05-16T09:20:50.310Z,2.10
2019-05-16T09:23:19.109Z,1.90
2019-05-16T09:25:48.831Z,2.10
2019-05-16T09:28:17.926Z,2.08
2019-05-16T09:30:49.026Z,2.37
2019-05-16T09:33:18.907Z,2.12
2019-05-16T09:35:57.302Z,2.10
2019-05-16T09:38:23.766Z,2.17
2019-05-16T09:40:52.583Z,2.20
2019-05-16T09:43:21.271Z,2.12
2019-05-16T09:45:49.940Z,2.00
2019-05-16T09:48:19.197Z,2.10
2019-05-16T09:50:48.531Z,2.10
2019-05-16T09:53:17.486Z,2.27
2019-05-16T09:55:47.069Z,1.95
2019-05-16T09:58:18.174Z,2.08
2019-05-16T10:00:47.639Z,2.05
2019-05-16T10:03:20.125Z,1.90
2019-05-16T10:05:47.079Z,2.40
2019-05-16T10:08:17.366Z,2.30
2019-05-16T10:10:46.438Z,2.20
2019-05-16T10:13:17.986Z,2.40
2019-05-16T10:15:47.312Z,2.40
2019-05-16T10:18:16.841Z,2.70
2019-05-16T10:20:45.935Z,2.62
2019-05-16T10:23:17.869Z,2.95
2019-05-16T10:25:47.727Z,2.60
2019-05-16T10:28:17.321Z,2.70
2019-05-16T10:30:50.996Z,2.72
2019-05-16T10:33:19.688Z,2.62
2019-05-16T10:35:48.371Z,2.75
2019-05-16T10:38:17.063Z,3.33
2019-05-16T10:40:47.737Z,3.10
2019-05-16T10:43:17.336Z,3.40
2019-05-16T10:45:46.477Z,3.80
2019-05-16T10:48:17.635Z,3.40
2019-05-16T10:50:47.726Z,3.98
2019-05-16T10:53:42.349Z,3.70
2019-05-16T10:55:47.701Z,4.12
2019-05-16T10:58:32.874Z,3.98
2019-05-16T11:01:11.144Z,3.60
2019-05-16T11:03:17.476Z,4.50
2019-05-16T11:06:01.270Z,4.10
2019-05-16T11:08:16.562Z,3.60
2019-05-16T11:10:47.509Z,3.80
2019-05-16T11:13:19.816Z,3.72
2019-05-16T11:15:46.509Z,3.80
2019-05-16T11:18:17.401Z,4.67
2019-05-16T11:20:48.958Z,4.30
2019-05-16T11:23:22.333Z,4.37
2019-05-16T11:25:47.091Z,4.00
2019-05-16T11:28:17.699Z,3.72
2019-05-16T11:30:47.598Z,4.20
2019-05-16T11:33:17.442Z,4.62
2019-05-16T11:35:47.904Z,4.00
2019-05-16T11:38:17.788Z,4.00
2019-05-16T11:40:47.547Z,4.17
2019-05-16T11:43:21.438Z,3.77
2019-05-16T11:45:46.930Z,4.03
2019-05-16T11:48:17.143Z,3.52
2019-05-16T11:50:47.920Z,3.80
2019-05-16T11:53:17.463Z,4.08
2019-05-16T11:55:54.799Z,3.90
2019-05-16T11:58:18.047Z,3.45
2019-05-16T12:00:48.169Z,3.42
2019-05-16T12:03:17.315Z,3.75
2019-05-16T12:05:48.283Z,4.12
2019-05-16T12:08:17.457Z,3.62
2019-05-16T12:10:47.213Z,3.52
2019-05-16T12:13:27.567Z,3.75
2019-05-16T12:15:51.366Z,3.95
2019-05-16T12:18:19.913Z,3.90
2019-05-16T12:20:48.398Z,4.17
2019-05-16T12:23:17.526Z,4.47
2019-05-16T12:25:47.599Z,4.30
2019-05-16T12:28:16.818Z,3.90
2019-05-16T12:30:47.245Z,4.00
2019-05-16T12:33:18.689Z,4.20
2019-05-16T12:35:47.493Z,3.83
2019-05-16T12:38:17.000Z,3.85
2019-05-16T12:40:47.867Z,4.08
2019-05-16T12:43:18.082Z,3.47
2019-05-16T12:45:47.271Z,3.80
2019-05-16T12:48:19.894Z,3.42
2019-05-16T12:50:48.014Z,3.90
2019-05-16T12:53:16.787Z,3.37
2019-05-16T12:55:47.552Z,4.00
2019-05-16T12:58:24.605Z,3.55
2019-05-16T13:00:54.124Z,3.50
2019-05-16T13:03:16.248Z,3.70
2019-05-16T13:05:44.713Z,3.77
2019-05-16T13:08:13.265Z,3.45
2019-05-16T13:10:41.723Z,3.55
2019-05-16T13:13:10.226Z,3.75
2019-05-16T13:15:41.822Z,3.40
2019-05-16T13:18:09.005Z,3.20
2019-05-16T13:20:41.015Z,3.75
2019-05-16T13:23:14.357Z,3.17
2019-05-16T13:25:38.047Z,3.55
2019-05-16T13:28:08.186Z,3.17
2019-05-16T13:30:37.696Z,3.58
2019-05-16T13:33:07.202Z,3.83
2019-05-16T13:35:36.963Z,3.10
2019-05-16T13:38:07.912Z,3.52
2019-05-16T13:40:36.033Z,3.25
2019-05-16T13:43:09.623Z,3.45
2019-05-16T13:45:37.509Z,3.02
2019-05-16T13:48:07.846Z,3.05
2019-05-16T13:50:37.278Z,2.55
2019-05-16T13:53:07.870Z,3.12
2019-05-16T13:55:37.772Z,3.00
2019-05-16T13:58:07.726Z,2.83
2019-05-16T14:00:37.510Z,3.25
2019-05-16T14:03:07.411Z,3.22
2019-05-16T14:05:37.935Z,2.72
2019-05-16T14:08:06.922Z,3.35
2019-05-16T14:10:37.522Z,3.50
2019-05-16T14:13:07.501Z,3.00
2019-05-16T14:15:36.776Z,2.90
2019-05-16T14:18:08.036Z,3.00
2019-05-16T14:20:37.643Z,3.22
2019-05-16T14:23:08.505Z,3.22
2019-05-16T14:25:38.059Z,3.25
2019-05-16T14:28:08.774Z,3.30
2019-05-16T14:30:37.558Z,3.30
2019-05-16T14:33:13.606Z,3.67
2019-05-16T14:35:37.717Z,3.58
2019-05-16T14:38:06.391Z,3.02
2019-05-16T14:40:37.413Z,3.65
2019-05-16T14:43:08.145Z,3.60
2019-05-16T14:45:37.168Z,6.50
2019-05-16T14:48:07.598Z,3.75
2019-05-16T14:50:37.528Z,3.50
2019-05-16T14:53:07.379Z,4.08
2019-05-16T14:55:38.120Z,3.60
2019-05-16T14:58:07.463Z,5.40
2019-05-16T15:00:38.267Z,3.65
2019-05-16T15:03:08.227Z,4.05
2019-05-16T15:05:42.729Z,3.77
2019-05-16T15:08:08.286Z,3.60
2019-05-16T15:10:42.325Z,3.75
2019-05-16T15:13:17.540Z,3.98
2019-05-16T15:15:46.712Z,3.80
2019-05-16T15:18:17.674Z,3.95
2019-05-16T15:20:46.922Z,4.10
2019-05-16T15:23:17.548Z,3.83
2019-05-16T15:25:45.822Z,4.50
2019-05-16T15:28:17.015Z,4.50
2019-05-16T15:30:46.826Z,4.53
2019-05-16T15:33:19.360Z,4.25
2019-05-16T15:35:47.117Z,4.62
2019-05-16T15:38:16.649Z,4.37
2019-05-16T15:40:47.914Z,4.58
2019-05-16T15:43:18.046Z,4.85
2019-05-16T15:45:49.890Z,4.30
2019-05-16T15:48:17.221Z,4.58
2019-05-16T15:50:46.035Z,4.58
2019-05-16T15:53:14.593Z,5.00
2019-05-16T15:55:57.705Z,5.25
2019-05-16T15:58:26.782Z,4.97
2019-05-16T16:00:57.823Z,7.17
2019-05-16T16:03:27.197Z,5.90
2019-05-16T16:05:55.942Z,6.05
2019-05-16T16:08:27.889Z,5.30
2019-05-16T16:10:54.934Z,6.05
2019-05-16T16:13:23.534Z,7.20
2019-05-16T16:15:54.647Z,6.65
2019-05-16T16:18:22.569Z,7.37
2019-05-16T16:20:51.042Z,7.90
2019-05-16T16:23:19.534Z,5.65
2019-05-16T16:25:50.360Z,6.12
2019-05-16T16:28:18.479Z,6.53
2019-05-16T16:31:03.497Z,7.15
2019-05-16T16:33:32.012Z,6.72
2019-05-16T16:36:00.460Z,10.08
2019-05-16T16:38:29.055Z,6.85
2019-05-16T16:40:57.616Z,6.97
2019-05-16T16:43:26.213Z,6.35
2019-05-16T16:46:06.215Z,7.20
2019-05-16T16:48:26.601Z,7.50
2019-05-16T16:50:57.413Z,7.20
2019-05-16T16:53:26.987Z,7.65
2019-05-16T16:55:56.812Z,7.85
2019-05-16T16:58:26.631Z,7.70
2019-05-16T17:00:55.340Z,8.18
2019-05-16T17:03:23.891Z,10.53
2019-05-16T17:05:52.447Z,7.35
2019-05-16T17:08:23.376Z,8.00
2019-05-16T17:10:51.381Z,8.00
2019-05-16T17:13:19.830Z,8.40
2019-05-16T17:15:48.365Z,9.28
2019-05-16T17:18:17.577Z,8.85
2019-05-16T17:20:47.673Z,8.35
2019-05-16T17:23:17.371Z,9.08
2019-05-16T17:25:47.134Z,8.05
2019-05-16T17:28:17.419Z,9.83
2019-05-16T17:30:47.105Z,10.43
2019-05-16T17:33:18.307Z,10.65
2019-05-16T17:35:48.834Z,8.58
2019-05-16T17:38:17.468Z,8.53
2019-05-16T17:40:46.549Z,12.05
2019-05-16T17:43:16.457Z,9.18
2019-05-16T17:45:46.988Z,12.20
2019-05-16T17:48:17.591Z,10.00
2019-05-16T17:50:51.307Z,9.75
2019-05-16T17:53:19.800Z,9.28
2019-05-16T17:55:48.439Z,9.05
2019-05-16T17:58:17.057Z,9.83
2019-05-16T18:00:47.159Z,9.80
2019-05-16T18:03:17.389Z,9.90
2019-05-16T18:05:47.474Z,11.00
2019-05-16T18:08:16.298Z,9.63
2019-05-16T18:10:47.224Z,9.40
2019-05-16T18:13:15.464Z,9.98
2019-05-16T18:15:44.007Z,9.85
2019-05-16T18:18:12.471Z,9.60
2019-05-16T18:21:17.108Z,13.15
2019-05-16T18:23:47.193Z,9.80
2019-05-16T18:26:17.348Z,10.78
2019-05-16T18:28:46.729Z,10.28
2019-05-16T18:31:17.289Z,10.18
2019-05-16T18:33:45.966Z,10.63
2019-05-16T18:36:16.820Z,9.25
2019-05-16T18:38:46.663Z,10.08
2019-05-16T18:41:16.619Z,9.65
2019-05-16T18:43:47.237Z,8.35
2019-05-16T18:46:16.296Z,9.43
2019-05-16T18:48:47.005Z,9.15
2019-05-16T18:51:15.257Z,8.98
2019-05-16T18:53:43.753Z,8.78
2019-05-16T18:56:16.806Z,9.55
2019-05-16T18:58:46.607Z,9.43
2019-05-16T19:01:17.598Z,8.75
2019-05-16T19:03:46.503Z,7.90
2019-05-16T19:06:17.023Z,7.42
2019-05-16T19:08:45.646Z,8.03
2019-05-16T19:11:14.498Z,8.05
2019-05-16T19:13:42.983Z,8.03
2019-05-16T19:16:11.547Z,7.87
2019-05-16T19:18:40.049Z,8.60
2019-05-16T19:21:08.904Z,7.90
2019-05-16T19:23:37.744Z,7.67
2019-05-16T19:26:07.338Z,8.05
2019-05-16T19:28:37.318Z,7.90
2019-05-16T19:31:06.644Z,8.48
2019-05-16T19:33:35.151Z,8.60
2019-05-16T19:36:03.787Z,8.60
2019-05-16T19:38:32.413Z,8.05
2019-05-16T19:41:00.936Z,8.20
2019-05-16T19:43:29.441Z,8.40
2019-05-16T19:45:57.975Z,7.78
2019-05-16T19:48:26.806Z,8.00
2019-05-16T19:50:56.883Z,7.53
2019-05-16T19:53:27.146Z,10.32
2019-05-16T19:55:56.557Z,7.80
2019-05-16T19:58:26.685Z,7.85
2019-05-16T20:00:57.194Z,7.92
2019-05-16T20:03:27.298Z,7.50
2019-05-16T20:05:56.814Z,7.08
2019-05-16T20:08:26.918Z,7.40
2019-05-16T20:10:55.826Z,7.28
2019-05-16T20:13:24.304Z,8.13
2019-05-16T20:15:52.773Z,8.15
2019-05-16T20:18:21.440Z,8.10
2019-05-16T20:20:49.993Z,7.70
2019-05-16T20:23:18.847Z,8.35
2019-05-16T20:25:47.465Z,7.67
2019-05-16T20:28:18.247Z,9.15
2019-05-16T20:30:47.526Z,8.90
2019-05-16T20:33:17.997Z,8.35
2019-05-16T20:35:46.806Z,8.15
2019-05-16T20:38:17.285Z,7.97
2019-05-16T20:40:46.617Z,8.40
2019-05-16T20:43:16.848Z,8.58
2019-05-16T20:45:47.613Z,9.48
2019-05-16T20:48:18.441Z,9.10
2019-05-16T20:50:48.839Z,8.58
2019-05-16T20:53:17.550Z,9.13
2019-05-16T20:55:46.927Z,8.95
2019-05-16T20:58:16.441Z,9.15
2019-05-16T21:00:47.002Z,8.55
2019-05-16T21:03:16.328Z,9.53
2019-05-16T21:05:47.963Z,9.30
2019-05-16T21:08:17.277Z,10.80
2019-05-16T21:10:46.409Z,9.65
2019-05-16T21:13:17.171Z,10.13
2019-05-16T21:15:47.541Z,10.80
2019-05-16T21:18:16.625Z,9.85
2019-05-16T21:20:47.048Z,9.85
2019-05-16T21:23:19.082Z,9.60
2019-05-16T21:25:46.548Z,10.30
2019-05-16T21:28:17.147Z,11.38
2019-05-16T21:30:47.413Z,10.98
2019-05-16T21:33:16.516Z,12.00
2019-05-16T21:35:47.052Z,10.93
2019-05-16T21:38:16.595Z,11.48
2019-05-16T21:40:45.309Z,10.10
2019-05-16T21:43:13.963Z,11.28
2019-05-16T21:45:42.668Z,11.95
2019-05-16T21:48:11.241Z,11.68
2019-05-16T21:50:39.730Z,10.88
2019-05-16T21:53:08.223Z,12.00
2019-05-16T21:55:37.043Z,10.28
2019-05-16T21:58:05.641Z,11.10
2019-05-16T22:00:38.785Z,10.90
2019-05-16T22:03:07.830Z,11.97
2019-05-16T22:05:37.045Z,12.47
2019-05-16T22:08:07.495Z,12.43
2019-05-16T22:10:37.297Z,11.83
2019-05-16T22:13:07.717Z,11.55
2019-05-16T22:15:36.841Z,11.10
2019-05-16T22:18:07.283Z,12.20
2019-05-16T22:20:35.901Z,11.83
2019-05-16T22:23:06.784Z,11.10
2019-05-16T22:25:34.872Z,10.28
2019-05-16T22:28:03.710Z,10.30
2019-05-16T22:30:32.307Z,10.58
2019-05-16T22:33:00.860Z,8.68
2019-05-16T22:35:29.420Z,9.68
2019-05-16T22:37:59.396Z,10.05
2019-05-16T22:40:28.200Z,10.43
2019-05-16T22:42:57.558Z,9.73
2019-05-16T22:45:27.041Z,9.15
2019-05-16T22:47:55.708Z,9.55
2019-05-16T22:50:26.901Z,9.13
2019-05-16T22:52:56.788Z,10.08
2019-05-16T22:55:26.406Z,9.55
2019-05-16T22:57:56.422Z,9.03
2019-05-16T23:00:29.454Z,8.73
2019-05-16T23:02:58.175Z,8.08
2019-05-16T23:05:27.526Z,8.10
2019-05-16T23:08:05.038Z,8.75
2019-05-16T23:10:28.085Z,7.85
2019-05-16T23:12:57.299Z,7.42
2019-05-16T23:15:26.567Z,8.00
2019-05-16T23:17:57.157Z,8.10
2019-05-16T23:20:27.566Z,8.25
2019-05-16T23:22:56.228Z,7.65
2019-05-16T23:25:24.929Z,8.23
2019-05-16T23:27:53.371Z,7.58
2019-05-16T23:30:22.046Z,8.03
2019-05-16T23:32:50.516Z,7.60
2019-05-16T23:35:19.128Z,8.23
2019-05-16T23:37:47.662Z,7.60
2019-05-16T23:40:17.429Z,7.72
2019-05-16T23:42:46.591Z,7.65
2019-05-16T23:45:17.176Z,7.83
2019-05-16T23:47:47.089Z,7.72
2019-05-16T23:50:17.134Z,8.50
2019-05-16T23:52:47.067Z,8.05
2019-05-16T23:55:17.412Z,8.98
2019-05-16T23:57:46.585Z,8.13
